sensor_id;sensor_type;location;lat;lon;timestamp;pressure;altitude;pressure_sealevel;temperature;humidity
19827;BME280;10074;52.018;4.726;2023-03-21T00:04:58;46255.34;;;-144.79;100.00
19827;BME280;10074;52.018;4.726;2023-03-21T00:09:58;46263.38;;;-144.79;100.00
19827;BME280;10074;52.018;4.726;2023-03-21T00:14:59;46263.38;;;-144.79;100.00
19827;BME280;10074;52.018;4.726;2023-03-21T00:20:05;46257.34;;;-144.79;100.00
19827;BME280;10074;52.018;4.726;2023-03-21T00:25:07;46263.38;;;-144.79;100.00
19827;BME280;10074;52.018;4.726;2023-03-21T00:30:11;46255.34;;;-144.79;100.00
19827;BME280;10074;52.018;4.726;2023-03-21T00:35:11;46263.38;;;-144.79;100.00
19827;BME280;10074;52.018;4.726;2023-03-21T00:40:12;46259.34;;;-144.79;100.00
19827;BME280;10074;52.018;4.726;2023-03-21T00:45:13;46271.38;;;-144.79;100.00
19827;BME280;10074;52.018;4.726;2023-03-21T00:50:14;46259.34;;;-144.79;100.00
19827;BME280;10074;52.018;4.726;2023-03-21T00:55:17;46263.38;;;-144.79;100.00
19827;BME280;10074;52.018;4.726;2023-03-21T01:00:18;46263.38;;;-144.79;100.00
19827;BME280;10074;52.018;4.726;2023-03-21T01:05:19;46263.38;;;-144.79;100.00
19827;BME280;10074;52.018;4.726;2023-03-21T01:10:44;46263.38;;;-144.79;100.00
19827;BME280;10074;52.018;4.726;2023-03-21T01:15:50;46253.34;;;-144.79;100.00
19827;BME280;10074;52.018;4.726;2023-03-21T01:20:54;46259.34;;;-144.79;100.00
19827;BME280;10074;52.018;4.726;2023-03-21T01:25:56;46263.38;;;-144.79;100.00
19827;BME280;10074;52.018;4.726;2023-03-21T01:30:56;46261.34;;;-144.79;100.00
19827;BME280;10074;52.018;4.726;2023-03-21T01:35:57;46263.38;;;-144.79;100.00
19827;BME280;10074;52.018;4.726;2023-03-21T01:40:59;46263.38;;;-144.79;100.00
19827;BME280;10074;52.018;4.726;2023-03-21T01:51:10;46265.38;;;-144.79;100.00
19827;BME280;10074;52.018;4.726;2023-03-21T01:56:17;46259.34;;;-144.79;100.00
19827;BME280;10074;52.018;4.726;2023-03-21T02:01:18;46265.38;;;-144.79;100.00
19827;BME280;10074;52.018;4.726;2023-03-21T02:06:29;46267.38;;;-144.79;100.00
19827;BME280;10074;52.018;4.726;2023-03-21T02:11:32;46263.38;;;-144.79;100.00
19827;BME280;10074;52.018;4.726;2023-03-21T02:27:25;46259.34;;;-144.79;100.00
19827;BME280;10074;52.018;4.726;2023-03-21T02:43:06;46263.38;;;-144.79;100.00
19827;BME280;10074;52.018;4.726;2023-03-21T02:48:14;46259.34;;;-144.79;100.00
19827;BME280;10074;52.018;4.726;2023-03-21T02:53:20;46263.38;;;-144.79;100.00
19827;BME280;10074;52.018;4.726;2023-03-21T02:58:24;46261.34;;;-144.79;100.00
19827;BME280;10074;52.018;4.726;2023-03-21T03:03:26;46261.34;;;-144.79;100.00
19827;BME280;10074;52.018;4.726;2023-03-21T04:30:04;46263.38;;;-144.79;100.00
19827;BME280;10074;52.018;4.726;2023-03-21T04:35:07;46265.38;;;-144.79;100.00
19827;BME280;10074;52.018;4.726;2023-03-21T04:40:09;46263.38;;;-144.79;100.00
19827;BME280;10074;52.018;4.726;2023-03-21T04:45:11;46259.34;;;-144.79;100.00
19827;BME280;10074;52.018;4.726;2023-03-21T04:50:11;46263.38;;;-144.79;100.00
19827;BME280;10074;52.018;4.726;2023-03-21T04:55:13;46257.34;;;-144.79;100.00
19827;BME280;10074;52.018;4.726;2023-03-21T05:00:14;46269.38;;;-144.79;100.00
19827;BME280;10074;52.018;4.726;2023-03-21T05:05:16;46265.38;;;-144.79;100.00
19827;BME280;10074;52.018;4.726;2023-03-21T05:10:16;46267.38;;;-144.79;100.00
19827;BME280;10074;52.018;4.726;2023-03-21T05:15:17;46271.38;;;-144.79;100.00
19827;BME280;10074;52.018;4.726;2023-03-21T05:20:17;46267.38;;;-144.79;100.00
19827;BME280;10074;52.018;4.726;2023-03-21T05:25:18;46263.38;;;-144.79;100.00
19827;BME280;10074;52.018;4.726;2023-03-21T05:30:20;46263.38;;;-144.79;100.00
19827;BME280;10074;52.018;4.726;2023-03-21T05:35:20;46259.34;;;-144.79;100.00
19827;BME280;10074;52.018;4.726;2023-03-21T05:40:20;46259.34;;;-144.79;100.00
19827;BME280;10074;52.018;4.726;2023-03-21T05:45:21;46265.38;;;-144.79;100.00
19827;BME280;10074;52.018;4.726;2023-03-21T05:50:21;46267.38;;;-144.79;100.00
19827;BME280;10074;52.018;4.726;2023-03-21T05:55:21;46261.34;;;-144.79;100.00
19827;BME280;10074;52.018;4.726;2023-03-21T06:00:22;46265.38;;;-144.79;100.00
19827;BME280;10074;52.018;4.726;2023-03-21T06:05:22;46265.38;;;-144.79;100.00
19827;BME280;10074;52.018;4.726;2023-03-21T06:10:22;46263.38;;;-144.79;100.00
19827;BME280;10074;52.018;4.726;2023-03-21T06:15:23;46265.38;;;-144.79;100.00
19827;BME280;10074;52.018;4.726;2023-03-21T06:20:23;46265.38;;;-144.79;100.00
19827;BME280;10074;52.018;4.726;2023-03-21T06:25:24;46263.38;;;-144.79;100.00
19827;BME280;10074;52.018;4.726;2023-03-21T06:30:24;46259.34;;;-144.79;100.00
19827;BME280;10074;52.018;4.726;2023-03-21T06:35:25;46261.34;;;-144.79;100.00
19827;BME280;10074;52.018;4.726;2023-03-21T06:40:25;46263.38;;;-144.79;100.00
19827;BME280;10074;52.018;4.726;2023-03-21T06:45:25;46265.38;;;-144.79;100.00
19827;BME280;10074;52.018;4.726;2023-03-21T06:50:26;46259.34;;;-144.79;100.00
19827;BME280;10074;52.018;4.726;2023-03-21T06:55:26;46261.34;;;-144.79;100.00
19827;BME280;10074;52.018;4.726;2023-03-21T07:00:28;46261.34;;;-144.79;100.00
19827;BME280;10074;52.018;4.726;2023-03-21T07:05:28;46255.34;;;-144.79;100.00
19827;BME280;10074;52.018;4.726;2023-03-21T07:10:28;46257.34;;;-144.79;100.00
19827;BME280;10074;52.018;4.726;2023-03-21T07:15:28;46263.38;;;-144.79;100.00
19827;BME280;10074;52.018;4.726;2023-03-21T07:20:30;46263.38;;;-144.79;100.00
19827;BME280;10074;52.018;4.726;2023-03-21T07:25:30;46255.34;;;-144.79;100.00
19827;BME280;10074;52.018;4.726;2023-03-21T07:30:31;46261.34;;;-144.79;100.00
19827;BME280;10074;52.018;4.726;2023-03-21T07:35:31;46259.34;;;-144.79;100.00
19827;BME280;10074;52.018;4.726;2023-03-21T07:40:31;46263.38;;;-144.79;100.00
19827;BME280;10074;52.018;4.726;2023-03-21T07:45:32;46267.38;;;-144.79;100.00
19827;BME280;10074;52.018;4.726;2023-03-21T07:50:32;46261.34;;;-144.79;100.00
19827;BME280;10074;52.018;4.726;2023-03-21T07:55:32;46255.34;;;-144.79;100.00
19827;BME280;10074;52.018;4.726;2023-03-21T08:00:34;46255.34;;;-144.79;100.00
19827;BME280;10074;52.018;4.726;2023-03-21T08:05:35;46259.34;;;-144.79;100.00
19827;BME280;10074;52.018;4.726;2023-03-21T08:10:36;46259.34;;;-144.79;100.00
19827;BME280;10074;52.018;4.726;2023-03-21T08:15:37;46255.34;;;-144.79;100.00
19827;BME280;10074;52.018;4.726;2023-03-21T08:20:38;46257.34;;;-144.79;100.00
19827;BME280;10074;52.018;4.726;2023-03-21T08:25:39;46257.34;;;-144.79;100.00
19827;BME280;10074;52.018;4.726;2023-03-21T08:30:39;46261.34;;;-144.79;100.00
19827;BME280;10074;52.018;4.726;2023-03-21T08:35:39;46251.34;;;-144.79;100.00
19827;BME280;10074;52.018;4.726;2023-03-21T08:40:40;46251.34;;;-144.79;100.00
19827;BME280;10074;52.018;4.726;2023-03-21T08:45:40;46255.34;;;-144.79;100.00
19827;BME280;10074;52.018;4.726;2023-03-21T08:50:41;46243.31;;;-144.79;100.00
19827;BME280;10074;52.018;4.726;2023-03-21T08:55:42;46259.34;;;-144.79;100.00
19827;BME280;10074;52.018;4.726;2023-03-21T09:00:42;46243.31;;;-144.79;100.00
19827;BME280;10074;52.018;4.726;2023-03-21T09:05:43;46253.34;;;-144.79;100.00
19827;BME280;10074;52.018;4.726;2023-03-21T09:10:44;46255.34;;;-144.79;100.00
19827;BME280;10074;52.018;4.726;2023-03-21T09:15:44;46259.34;;;-144.79;100.00
19827;BME280;10074;52.018;4.726;2023-03-21T09:20:45;46247.31;;;-144.79;100.00
19827;BME280;10074;52.018;4.726;2023-03-21T09:25:46;46241.31;;;-144.79;100.00
19827;BME280;10074;52.018;4.726;2023-03-21T09:30:46;46253.34;;;-144.79;100.00
19827;BME280;10074;52.018;4.726;2023-03-21T09:35:47;46257.34;;;-144.79;100.00
19827;BME280;10074;52.018;4.726;2023-03-21T09:40:58;46253.34;;;-144.79;100.00
19827;BME280;10074;52.018;4.726;2023-03-21T09:51:21;46261.34;;;-144.79;100.00
19827;BME280;10074;52.018;4.726;2023-03-21T09:56:23;46255.34;;;-144.79;100.00
19827;BME280;10074;52.018;4.726;2023-03-21T10:01:29;46267.38;;;-144.79;100.00
19827;BME280;10074;52.018;4.726;2023-03-21T10:06:36;46263.38;;;-144.79;100.00
19827;BME280;10074;52.018;4.726;2023-03-21T10:11:43;46265.38;;;-144.79;100.00
19827;BME280;10074;52.018;4.726;2023-03-21T10:16:55;46259.34;;;-144.79;100.00
19827;BME280;10074;52.018;4.726;2023-03-21T10:21:56;46255.34;;;-144.79;100.00
19827;BME280;10074;52.018;4.726;2023-03-21T10:26:57;46255.34;;;-144.79;100.00
19827;BME280;10074;52.018;4.726;2023-03-21T10:31:58;46263.38;;;-144.79;100.00
19827;BME280;10074;52.018;4.726;2023-03-21T10:36:59;46279.41;;;-144.79;100.00
19827;BME280;10074;52.018;4.726;2023-03-21T10:42:00;46263.38;;;-144.79;100.00
19827;BME280;10074;52.018;4.726;2023-03-21T10:47:06;46271.38;;;-144.79;100.00
19827;BME280;10074;52.018;4.726;2023-03-21T10:52:09;46265.38;;;-144.79;100.00
19827;BME280;10074;52.018;4.726;2023-03-21T11:07:29;46293.44;;;-144.79;100.00
19827;BME280;10074;52.018;4.726;2023-03-21T11:12:37;46287.44;;;-144.79;100.00
19827;BME280;10074;52.018;4.726;2023-03-21T11:17:38;46291.44;;;-144.79;100.00
19827;BME280;10074;52.018;4.726;2023-03-21T11:22:42;46295.44;;;-144.79;100.00
19827;BME280;10074;52.018;4.726;2023-03-21T11:27:48;46293.44;;;-144.79;100.00
19827;BME280;10074;52.018;4.726;2023-03-21T11:32:57;46289.44;;;-144.79;100.00
19827;BME280;10074;52.018;4.726;2023-03-21T11:37:58;46281.41;;;-144.79;100.00
19827;BME280;10074;52.018;4.726;2023-03-21T11:48:22;46287.44;;;-144.79;100.00
19827;BME280;10074;52.018;4.726;2023-03-21T11:53:45;46267.38;;;-144.79;100.00
19827;BME280;10074;52.018;4.726;2023-03-21T11:59:08;46267.38;;;-144.79;100.00
19827;BME280;10074;52.018;4.726;2023-03-21T12:19:41;46275.41;;;-144.79;100.00
19827;BME280;10074;52.018;4.726;2023-03-21T12:24:52;46265.38;;;-144.79;100.00
19827;BME280;10074;52.018;4.726;2023-03-21T12:41:24;46271.38;;;-144.79;100.00
19827;BME280;10074;52.018;4.726;2023-03-21T12:46:40;46269.38;;;-144.79;100.00
19827;BME280;10074;52.018;4.726;2023-03-21T12:51:46;46273.38;;;-144.79;100.00
19827;BME280;10074;52.018;4.726;2023-03-21T12:56:53;46275.41;;;-144.79;100.00
19827;BME280;10074;52.018;4.726;2023-03-21T13:02:06;46267.38;;;-144.79;100.00
19827;BME280;10074;52.018;4.726;2023-03-21T13:07:10;46271.38;;;-144.79;100.00
19827;BME280;10074;52.018;4.726;2023-03-21T13:17:39;46271.38;;;-144.79;100.00
19827;BME280;10074;52.018;4.726;2023-03-21T13:22:42;46271.38;;;-144.79;100.00
19827;BME280;10074;52.018;4.726;2023-03-21T13:28:02;46265.38;;;-144.79;100.00
19827;BME280;10074;52.018;4.726;2023-03-21T13:33:14;46267.38;;;-144.79;100.00
19827;BME280;10074;52.018;4.726;2023-03-21T13:38:19;46269.38;;;-144.79;100.00
19827;BME280;10074;52.018;4.726;2023-03-21T13:43:41;46271.38;;;-144.79;100.00
19827;BME280;10074;52.018;4.726;2023-03-21T13:48:53;46275.41;;;-144.79;100.00
19827;BME280;10074;52.018;4.726;2023-03-21T14:04:42;46267.38;;;-144.79;100.00
19827;BME280;10074;52.018;4.726;2023-03-21T14:09:45;46271.38;;;-144.79;100.00
19827;BME280;10074;52.018;4.726;2023-03-21T14:14:53;46269.38;;;-144.79;100.00
19827;BME280;10074;52.018;4.726;2023-03-21T14:25:12;46275.41;;;-144.79;100.00
19827;BME280;10074;52.018;4.726;2023-03-21T14:30:33;46267.38;;;-144.79;100.00
19827;BME280;10074;52.018;4.726;2023-03-21T14:35:36;46271.38;;;-144.79;100.00
19827;BME280;10074;52.018;4.726;2023-03-21T14:40:36;46275.41;;;-144.79;100.00
19827;BME280;10074;52.018;4.726;2023-03-21T14:45:38;46271.38;;;-144.79;100.00
19827;BME280;10074;52.018;4.726;2023-03-21T14:50:42;46277.41;;;-144.79;100.00
19827;BME280;10074;52.018;4.726;2023-03-21T14:55:49;46267.38;;;-144.79;100.00
19827;BME280;10074;52.018;4.726;2023-03-21T15:00:51;46265.38;;;-144.79;100.00
19827;BME280;10074;52.018;4.726;2023-03-21T15:05:54;46267.38;;;-144.79;100.00
19827;BME280;10074;52.018;4.726;2023-03-21T15:10:56;46271.38;;;-144.79;100.00
19827;BME280;10074;52.018;4.726;2023-03-21T15:15:57;46277.41;;;-144.79;100.00
19827;BME280;10074;52.018;4.726;2023-03-21T15:21:05;46271.38;;;-144.79;100.00
19827;BME280;10074;52.018;4.726;2023-03-21T15:26:13;46279.41;;;-144.79;100.00
19827;BME280;10074;52.018;4.726;2023-03-21T15:31:20;46269.38;;;-144.79;100.00
19827;BME280;10074;52.018;4.726;2023-03-21T15:36:25;46273.38;;;-144.79;100.00
19827;BME280;10074;52.018;4.726;2023-03-21T15:41:29;46275.41;;;-144.79;100.00
19827;BME280;10074;52.018;4.726;2023-03-21T15:46:43;46267.38;;;-144.79;100.00
19827;BME280;10074;52.018;4.726;2023-03-21T15:56:47;46263.38;;;-144.79;100.00
19827;BME280;10074;52.018;4.726;2023-03-21T16:01:51;46255.34;;;-144.79;100.00
19827;BME280;10074;52.018;4.726;2023-03-21T16:07:14;46247.31;;;-144.79;100.00
19827;BME280;10074;52.018;4.726;2023-03-21T16:12:16;46255.34;;;-144.79;100.00
19827;BME280;10074;52.018;4.726;2023-03-21T16:17:33;46255.34;;;-144.79;100.00
19827;BME280;10074;52.018;4.726;2023-03-21T16:22:36;46257.34;;;-144.79;100.00
19827;BME280;10074;52.018;4.726;2023-03-21T16:27:37;46251.34;;;-144.79;100.00
19827;BME280;10074;52.018;4.726;2023-03-21T16:32:37;46259.34;;;-144.79;100.00
19827;BME280;10074;52.018;4.726;2023-03-21T16:37:38;46261.34;;;-144.79;100.00
19827;BME280;10074;52.018;4.726;2023-03-21T16:42:39;46269.38;;;-144.79;100.00
19827;BME280;10074;52.018;4.726;2023-03-21T16:47:39;46267.38;;;-144.79;100.00
19827;BME280;10074;52.018;4.726;2023-03-21T16:52:40;46269.38;;;-144.79;100.00
19827;BME280;10074;52.018;4.726;2023-03-21T16:57:40;46267.38;;;-144.79;100.00
19827;BME280;10074;52.018;4.726;2023-03-21T17:02:41;46263.38;;;-144.79;100.00
19827;BME280;10074;52.018;4.726;2023-03-21T17:07:42;46277.41;;;-144.79;100.00
19827;BME280;10074;52.018;4.726;2023-03-21T17:12:43;46271.38;;;-144.79;100.00
19827;BME280;10074;52.018;4.726;2023-03-21T17:17:44;46275.41;;;-144.79;100.00
19827;BME280;10074;52.018;4.726;2023-03-21T17:22:53;46275.41;;;-144.79;100.00
19827;BME280;10074;52.018;4.726;2023-03-21T17:27:53;46265.38;;;-144.79;100.00
19827;BME280;10074;52.018;4.726;2023-03-21T17:32:56;46271.38;;;-144.79;100.00
19827;BME280;10074;52.018;4.726;2023-03-21T17:37:57;46261.34;;;-144.79;100.00
19827;BME280;10074;52.018;4.726;2023-03-21T17:43:12;46263.38;;;-144.79;100.00
19827;BME280;10074;52.018;4.726;2023-03-21T17:48:14;46275.41;;;-144.79;100.00
19827;BME280;10074;52.018;4.726;2023-03-21T17:53:30;46263.38;;;-144.79;100.00
19827;BME280;10074;52.018;4.726;2023-03-21T17:58:31;46265.38;;;-144.79;100.00
19827;BME280;10074;52.018;4.726;2023-03-21T18:03:49;46265.38;;;-144.79;100.00
19827;BME280;10074;52.018;4.726;2023-03-21T18:08:53;46263.38;;;-144.79;100.00
19827;BME280;10074;52.018;4.726;2023-03-21T18:14:03;46263.38;;;-144.79;100.00
19827;BME280;10074;52.018;4.726;2023-03-21T18:19:04;46275.41;;;-144.79;100.00
19827;BME280;10074;52.018;4.726;2023-03-21T18:24:37;46269.38;;;-144.79;100.00
19827;BME280;10074;52.018;4.726;2023-03-21T18:30:03;46275.41;;;-144.79;100.00
19827;BME280;10074;52.018;4.726;2023-03-21T18:35:17;46279.41;;;-144.79;100.00
19827;BME280;10074;52.018;4.726;2023-03-21T18:40:21;46267.38;;;-144.79;100.00
19827;BME280;10074;52.018;4.726;2023-03-21T18:45:23;46277.41;;;-144.79;100.00
19827;BME280;10074;52.018;4.726;2023-03-21T18:50:24;46277.41;;;-144.79;100.00
19827;BME280;10074;52.018;4.726;2023-03-21T18:55:24;46277.41;;;-144.79;100.00
19827;BME280;10074;52.018;4.726;2023-03-21T19:00:25;46265.38;;;-144.79;100.00
19827;BME280;10074;52.018;4.726;2023-03-21T19:05:26;46279.41;;;-144.79;100.00
19827;BME280;10074;52.018;4.726;2023-03-21T19:10:27;46271.38;;;-144.79;100.00
19827;BME280;10074;52.018;4.726;2023-03-21T19:15:27;46277.41;;;-144.79;100.00
19827;BME280;10074;52.018;4.726;2023-03-21T19:20:30;46275.41;;;-144.79;100.00
19827;BME280;10074;52.018;4.726;2023-03-21T19:25:31;46275.41;;;-144.79;100.00
19827;BME280;10074;52.018;4.726;2023-03-21T19:30:33;46279.41;;;-144.79;100.00
19827;BME280;10074;52.018;4.726;2023-03-21T19:35:34;46283.41;;;-144.79;100.00
19827;BME280;10074;52.018;4.726;2023-03-21T19:40:40;46271.38;;;-144.79;100.00
19827;BME280;10074;52.018;4.726;2023-03-21T19:45:46;46281.41;;;-144.79;100.00
19827;BME280;10074;52.018;4.726;2023-03-21T19:50:48;46275.41;;;-144.79;100.00
19827;BME280;10074;52.018;4.726;2023-03-21T19:55:49;46275.41;;;-144.79;100.00
19827;BME280;10074;52.018;4.726;2023-03-21T20:00:58;46275.41;;;-144.79;100.00
19827;BME280;10074;52.018;4.726;2023-03-21T20:06:03;46277.41;;;-144.79;100.00
19827;BME280;10074;52.018;4.726;2023-03-21T20:17:10;46279.41;;;-144.79;100.00
19827;BME280;10074;52.018;4.726;2023-03-21T20:22:18;46271.38;;;-144.79;100.00
19827;BME280;10074;52.018;4.726;2023-03-21T20:27:18;46271.38;;;-144.79;100.00
19827;BME280;10074;52.018;4.726;2023-03-21T20:32:32;46263.38;;;-144.79;100.00
19827;BME280;10074;52.018;4.726;2023-03-21T20:37:39;46275.41;;;-144.79;100.00
19827;BME280;10074;52.018;4.726;2023-03-21T20:42:43;46279.41;;;-144.79;100.00
19827;BME280;10074;52.018;4.726;2023-03-21T20:47:44;46279.41;;;-144.79;100.00
19827;BME280;10074;52.018;4.726;2023-03-21T20:52:47;46275.41;;;-144.79;100.00
19827;BME280;10074;52.018;4.726;2023-03-21T20:57:48;46283.41;;;-144.79;100.00
19827;BME280;10074;52.018;4.726;2023-03-21T21:02:53;46281.41;;;-144.79;100.00
19827;BME280;10074;52.018;4.726;2023-03-21T21:07:53;46277.41;;;-144.79;100.00
19827;BME280;10074;52.018;4.726;2023-03-21T21:13:00;46273.38;;;-144.79;100.00
19827;BME280;10074;52.018;4.726;2023-03-21T21:18:00;46281.41;;;-144.79;100.00
19827;BME280;10074;52.018;4.726;2023-03-21T21:23:01;46275.41;;;-144.79;100.00
19827;BME280;10074;52.018;4.726;2023-03-21T21:28:03;46281.41;;;-144.79;100.00
19827;BME280;10074;52.018;4.726;2023-03-21T21:33:42;46277.41;;;-144.79;100.00
19827;BME280;10074;52.018;4.726;2023-03-21T21:38:42;46275.41;;;-144.79;100.00
19827;BME280;10074;52.018;4.726;2023-03-21T21:43:58;46281.41;;;-144.79;100.00
19827;BME280;10074;52.018;4.726;2023-03-21T21:49:11;46283.41;;;-144.79;100.00
19827;BME280;10074;52.018;4.726;2023-03-21T21:54:16;46275.41;;;-144.79;100.00
19827;BME280;10074;52.018;4.726;2023-03-21T21:59:17;46283.41;;;-144.79;100.00
19827;BME280;10074;52.018;4.726;2023-03-21T22:10:23;46279.41;;;-144.79;100.00
19827;BME280;10074;52.018;4.726;2023-03-21T22:15:24;46275.41;;;-144.79;100.00
19827;BME280;10074;52.018;4.726;2023-03-21T22:20:35;46283.41;;;-144.79;100.00
19827;BME280;10074;52.018;4.726;2023-03-21T22:25:36;46283.41;;;-144.79;100.00
19827;BME280;10074;52.018;4.726;2023-03-21T22:30:54;46283.41;;;-144.79;100.00
19827;BME280;10074;52.018;4.726;2023-03-21T22:36:08;46271.38;;;-144.79;100.00
19827;BME280;10074;52.018;4.726;2023-03-21T22:41:10;46283.41;;;-144.79;100.00
19827;BME280;10074;52.018;4.726;2023-03-21T22:46:12;46275.41;;;-144.79;100.00
19827;BME280;10074;52.018;4.726;2023-03-21T22:51:16;46277.41;;;-144.79;100.00
19827;BME280;10074;52.018;4.726;2023-03-21T22:56:16;46279.41;;;-144.79;100.00
19827;BME280;10074;52.018;4.726;2023-03-21T23:01:35;46275.41;;;-144.79;100.00
19827;BME280;10074;52.018;4.726;2023-03-21T23:06:36;46275.41;;;-144.79;100.00
19827;BME280;10074;52.018;4.726;2023-03-21T23:11:38;46275.41;;;-144.79;100.00
19827;BME280;10074;52.018;4.726;2023-03-21T23:16:38;46283.41;;;-144.79;100.00
19827;BME280;10074;52.018;4.726;2023-03-21T23:21:41;46267.38;;;-144.79;100.00
19827;BME280;10074;52.018;4.726;2023-03-21T23:26:43;46277.41;;;-144.79;100.00
19827;BME280;10074;52.018;4.726;2023-03-21T23:31:44;46275.41;;;-144.79;100.00
19827;BME280;10074;52.018;4.726;2023-03-21T23:36:44;46285.41;;;-144.79;100.00
19827;BME280;10074;52.018;4.726;2023-03-21T23:41:48;46275.41;;;-144.79;100.00
19827;BME280;10074;52.018;4.726;2023-03-21T23:46:49;46275.41;;;-144.79;100.00
19827;BME280;10074;52.018;4.726;2023-03-21T23:51:55;46275.41;;;-144.79;100.00
19827;BME280;10074;52.018;4.726;2023-03-21T23:56:56;46279.41;;;-144.79;100.00
